createdAt,value
2023-03-11T00:00:40.034Z,746.00
2023-03-11T00:01:40.498Z,774.00
2023-03-11T00:02:40.073Z,738.00
2023-03-11T00:03:40.100Z,775.00
2023-03-11T00:04:40.110Z,786.00
2023-03-11T00:05:40.257Z,795.00
2023-03-11T00:06:40.158Z,826.00
2023-03-11T00:07:40.159Z,867.00
2023-03-11T00:08:40.202Z,888.00
2023-03-11T00:09:40.222Z,876.00
2023-03-11T00:10:40.239Z,887.00
2023-03-11T00:11:40.293Z,907.00
2023-03-11T00:12:40.300Z,943.00
2023-03-11T00:13:40.310Z,961.00
2023-03-11T00:14:40.332Z,908.00
2023-03-11T00:15:40.343Z,875.00
2023-03-11T00:16:40.401Z,886.00
2023-03-11T00:17:40.411Z,909.00
2023-03-11T00:18:40.435Z,923.00
2023-03-11T00:19:40.457Z,937.00
2023-03-11T00:20:40.459Z,902.00
2023-03-11T00:21:40.481Z,928.00
2023-03-11T00:22:40.527Z,961.00
2023-03-11T00:23:40.520Z,961.00
2023-03-11T00:24:40.593Z,995.00
2023-03-11T00:25:40.587Z,1030.00
2023-03-11T00:26:40.613Z,1016.00
2023-03-11T00:27:40.600Z,1031.00
2023-03-11T00:28:40.656Z,1072.00
2023-03-11T00:29:40.655Z,1074.00
2023-03-11T00:30:40.780Z,1087.00
2023-03-11T00:31:40.739Z,1112.00
2023-03-11T00:32:40.832Z,1160.00
2023-03-11T00:33:40.793Z,1180.00
2023-03-11T00:34:40.788Z,1219.00
2023-03-11T00:35:40.843Z,1234.00
2023-03-11T00:36:40.834Z,1237.00
2023-03-11T00:37:40.876Z,1256.00
2023-03-11T00:38:40.997Z,1301.00
2023-03-11T00:39:40.890Z,1324.00
2023-03-11T00:40:40.918Z,1319.00
2023-03-11T00:41:40.933Z,1362.00
2023-03-11T00:42:40.979Z,1368.00
2023-03-11T00:43:41.032Z,1365.00
2023-03-11T00:44:41.037Z,1375.00
2023-03-11T00:45:41.040Z,1400.00
2023-03-11T00:46:41.048Z,1381.00
2023-03-11T00:47:41.153Z,1398.00
2023-03-11T00:48:41.156Z,1409.00
2023-03-11T00:49:41.224Z,1408.00
2023-03-11T00:50:41.274Z,1427.00
2023-03-11T00:51:41.385Z,1451.00
2023-03-11T00:52:41.383Z,1457.00
2023-03-11T00:53:41.479Z,1445.00
2023-03-11T00:54:41.530Z,1482.00
2023-03-11T00:55:41.585Z,1506.00
2023-03-11T00:56:41.671Z,1509.00
2023-03-11T00:57:41.727Z,1492.00
2023-03-11T00:58:41.742Z,1496.00
2023-03-11T00:59:41.828Z,1502.00
2023-03-11T01:00:41.864Z,1477.00
2023-03-11T01:01:42.055Z,1503.00
2023-03-11T01:02:41.978Z,1522.00
2023-03-11T01:03:42.086Z,1536.00
2023-03-11T01:04:42.238Z,1565.00
2023-03-11T01:05:42.204Z,1546.00
2023-03-11T01:06:45.510Z,1563.00
2023-03-11T01:07:42.268Z,1545.00
2023-03-11T01:08:42.298Z,1500.00
2023-03-11T01:09:42.317Z,1488.00
2023-03-11T01:10:42.353Z,1516.00
2023-03-11T01:11:42.405Z,1541.00
2023-03-11T01:12:42.379Z,1524.00
2023-03-11T01:13:42.406Z,1539.00
2023-03-11T01:14:42.471Z,1539.00
2023-03-11T01:15:42.541Z,1564.00
2023-03-11T01:16:42.528Z,1548.00
2023-03-11T01:17:42.511Z,1559.00
2023-03-11T01:18:42.549Z,1573.00
2023-03-11T01:19:42.572Z,1588.00
2023-03-11T01:20:42.611Z,1571.00
2023-03-11T01:21:42.677Z,1591.00
2023-03-11T01:22:42.682Z,1582.00
2023-03-11T01:23:42.692Z,1583.00
2023-03-11T01:24:42.733Z,1580.00
2023-03-11T01:29:42.887Z,1590.00
2023-03-11T01:30:42.992Z,1589.00
2023-03-11T01:31:42.942Z,1601.00
2023-03-11T01:32:43.101Z,1625.00
2023-03-11T01:33:43.019Z,1624.00
2023-03-11T01:34:43.089Z,1656.00
2023-03-11T01:35:43.081Z,1637.00
2023-03-11T01:36:43.082Z,1660.00
2023-03-11T01:37:43.139Z,1632.00
2023-03-11T01:38:43.166Z,1654.00
2023-03-11T01:39:43.176Z,1667.00
2023-03-11T01:40:43.208Z,1665.00
2023-03-11T01:41:43.234Z,1658.00
2023-03-11T01:42:43.246Z,1669.00
2023-03-11T01:43:43.275Z,1653.00
2023-03-11T01:44:43.324Z,1671.00
2023-03-11T01:45:43.308Z,1651.00
2023-03-11T01:46:43.395Z,1643.00
2023-03-11T01:47:43.410Z,1625.00
2023-03-11T01:48:43.413Z,1646.00
2023-03-11T01:49:43.420Z,1651.00
2023-03-11T01:50:43.485Z,1669.00
2023-03-11T01:51:43.505Z,1695.00
2023-03-11T01:52:43.507Z,1698.00
2023-03-11T01:53:43.555Z,1705.00
2023-03-11T01:54:43.576Z,1698.00
2023-03-11T01:55:43.600Z,1700.00
2023-03-11T01:56:43.591Z,1707.00
2023-03-11T01:57:43.654Z,1690.00
2023-03-11T01:58:43.656Z,1686.00
2023-03-11T01:59:43.680Z,1706.00
2023-03-11T02:00:43.718Z,1713.00
2023-03-11T02:01:43.797Z,1708.00
2023-03-11T02:02:43.734Z,1692.00
2023-03-11T02:03:43.772Z,1686.00
2023-03-11T02:04:43.795Z,1693.00
2023-03-11T02:05:43.790Z,1679.00
2023-03-11T02:06:43.823Z,1686.00
2023-03-11T02:07:43.880Z,1690.00
2023-03-11T02:08:43.900Z,1673.00
2023-03-11T02:09:43.957Z,1670.00
2023-03-11T02:10:44.044Z,1685.00
2023-03-11T02:11:44.074Z,1699.00
2023-03-11T02:12:44.154Z,1694.00
2023-03-11T02:13:44.197Z,1686.00
2023-03-11T02:14:44.253Z,1692.00
2023-03-11T02:15:44.352Z,1682.00
2023-03-11T02:16:44.372Z,1707.00
2023-03-11T02:17:44.447Z,1721.00
2023-03-11T02:18:44.549Z,1720.00
2023-03-11T02:19:44.565Z,1699.00
2023-03-11T02:20:44.606Z,1700.00
2023-03-11T02:21:44.668Z,1702.00
2023-03-11T02:22:44.706Z,1720.00
2023-03-11T02:23:44.802Z,1719.00
2023-03-11T02:24:44.815Z,1715.00
2023-03-11T02:25:44.921Z,1709.00
2023-03-11T02:26:44.966Z,1712.00
2023-03-11T02:27:45.043Z,1710.00
2023-03-11T02:28:45.084Z,1706.00
2023-03-11T02:29:45.122Z,1700.00
2023-03-11T02:30:45.187Z,1690.00
2023-03-11T02:31:45.263Z,1671.00
2023-03-11T02:32:45.360Z,1679.00
2023-03-11T02:33:45.349Z,1680.00
2023-03-11T02:34:45.336Z,1689.00
2023-03-11T02:35:45.454Z,1685.00
2023-03-11T02:36:45.463Z,1680.00
2023-03-11T02:37:45.524Z,1672.00
2023-03-11T02:38:45.585Z,1693.00
2023-03-11T02:39:45.640Z,1704.00
2023-03-11T02:40:45.714Z,1711.00
2023-03-11T02:41:45.779Z,1697.00
2023-03-11T02:42:45.845Z,1705.00
2023-03-11T02:43:45.877Z,1712.00
2023-03-11T02:44:45.929Z,1709.00
2023-03-11T02:45:45.947Z,1708.00
2023-03-11T02:46:46.096Z,1717.00
2023-03-11T02:47:46.113Z,1717.00
2023-03-11T02:48:46.148Z,1714.00
2023-03-11T02:49:46.175Z,1739.00
2023-03-11T02:50:46.221Z,1728.00
2023-03-11T02:51:46.265Z,1740.00
2023-03-11T02:52:46.405Z,1732.00
2023-03-11T02:53:46.420Z,1725.00
2023-03-11T02:54:46.499Z,1721.00
2023-03-11T02:55:46.539Z,1732.00
2023-03-11T02:56:46.591Z,1730.00
2023-03-11T02:57:46.652Z,1741.00
2023-03-11T02:58:46.694Z,1747.00
2023-03-11T02:59:46.771Z,1741.00
2023-03-11T03:00:46.853Z,1728.00
2023-03-11T03:01:46.858Z,1730.00
2023-03-11T03:02:46.920Z,1686.00
2023-03-11T03:03:47.066Z,1670.00
2023-03-11T03:04:47.041Z,1659.00
2023-03-11T03:05:47.117Z,1648.00
2023-03-11T03:06:47.137Z,1655.00
2023-03-11T03:07:47.216Z,1631.00
2023-03-11T03:08:47.274Z,1629.00
2023-03-11T03:09:47.353Z,1609.00
2023-03-11T03:10:47.376Z,1645.00
2023-03-11T03:11:47.470Z,1651.00
2023-03-11T03:12:47.495Z,1638.00
2023-03-11T03:13:47.594Z,1614.00
2023-03-11T03:14:47.617Z,1622.00
2023-03-11T03:15:47.673Z,1634.00
2023-03-11T03:16:47.833Z,1626.00
2023-03-11T03:17:47.780Z,1655.00
2023-03-11T03:18:47.811Z,1633.00
2023-03-11T03:19:47.856Z,1639.00
2023-03-11T03:20:47.928Z,1621.00
2023-03-11T03:21:47.988Z,1612.00
2023-03-11T03:22:48.065Z,1619.00
2023-03-11T03:23:48.113Z,1633.00
2023-03-11T03:24:48.228Z,1632.00
2023-03-11T03:25:48.209Z,1619.00
2023-03-11T03:26:48.278Z,1597.00
2023-03-11T03:27:48.336Z,1601.00
2023-03-11T03:28:48.418Z,1614.00
2023-03-11T03:29:49.049Z,1603.00
2023-03-11T03:30:48.544Z,1575.00
2023-03-11T03:31:48.739Z,1560.00
2023-03-11T03:32:48.723Z,1523.00
2023-03-11T03:33:48.772Z,1508.00
2023-03-11T03:34:48.809Z,1482.00
2023-03-11T03:35:48.938Z,1471.00
2023-03-11T03:36:48.960Z,1476.00
2023-03-11T03:37:48.966Z,1463.00
2023-03-11T03:38:49.087Z,1487.00
2023-03-11T03:39:49.100Z,1486.00
2023-03-11T03:40:49.148Z,1472.00
2023-03-11T03:41:49.199Z,1484.00
2023-03-11T03:42:49.300Z,1498.00
2023-03-11T03:43:49.366Z,1506.00
2023-03-11T03:44:49.392Z,1502.00
2023-03-11T03:45:49.473Z,1526.00
2023-03-11T03:46:49.489Z,1516.00
2023-03-11T03:47:49.590Z,1515.00
2023-03-11T03:48:49.622Z,1538.00
2023-03-11T03:49:49.709Z,1546.00
2023-03-11T03:50:49.715Z,1538.00
2023-03-11T03:51:49.780Z,1547.00
2023-03-11T03:52:49.867Z,1556.00
2023-03-11T03:53:49.890Z,1542.00
2023-03-11T03:54:49.945Z,1532.00
2023-03-11T03:55:49.987Z,1535.00
2023-03-11T03:56:50.038Z,1541.00
2023-03-11T03:57:50.127Z,1561.00
2023-03-11T03:58:50.149Z,1531.00
2023-03-11T03:59:50.168Z,1542.00
2023-03-11T04:00:50.257Z,1553.00
2023-03-11T04:01:50.303Z,1559.00
2023-03-11T04:02:50.367Z,1573.00
2023-03-11T04:03:50.389Z,1566.00
2023-03-11T04:04:50.492Z,1588.00
2023-03-11T04:05:50.532Z,1566.00
2023-03-11T04:06:50.545Z,1577.00
2023-03-11T04:07:50.600Z,1577.00
2023-03-11T04:09:50.710Z,1595.00
2023-03-11T04:10:50.740Z,1589.00
2023-03-11T04:11:50.838Z,1583.00
2023-03-11T04:12:50.887Z,1566.00
2023-03-11T04:13:50.958Z,1555.00
2023-03-11T04:14:50.973Z,1571.00
2023-03-11T04:15:51.031Z,1575.00
2023-03-11T04:16:51.093Z,1554.00
2023-03-11T04:17:51.114Z,1590.00
2023-03-11T04:18:51.150Z,1588.00
2023-03-11T04:19:51.250Z,1598.00
2023-03-11T04:20:51.272Z,1594.00
2023-03-11T04:21:51.380Z,1600.00
2023-03-11T04:22:51.423Z,1610.00
2023-03-11T04:23:51.499Z,1602.00
2023-03-11T04:24:51.572Z,1582.00
2023-03-11T04:25:51.660Z,1589.00
2023-03-11T04:26:51.681Z,1617.00
2023-03-11T04:27:51.757Z,1616.00
2023-03-11T04:28:51.817Z,1618.00
2023-03-11T04:29:51.885Z,1594.00
2023-03-11T04:30:51.980Z,1584.00
2023-03-11T04:33:52.155Z,1619.00
2023-03-11T04:34:52.228Z,1633.00
2023-03-11T04:35:52.371Z,1625.00
2023-03-11T04:36:52.382Z,1623.00
2023-03-11T04:37:52.397Z,1616.00
2023-03-11T04:38:52.522Z,1620.00
2023-03-11T04:39:52.578Z,1614.00
2023-03-11T04:40:52.646Z,1596.00
2023-03-11T04:41:52.719Z,1620.00
2023-03-11T04:42:53.069Z,1608.00
2023-03-11T04:43:52.840Z,1616.00
2023-03-11T04:44:52.892Z,1615.00
2023-03-11T04:45:52.931Z,1609.00
2023-03-11T04:46:52.977Z,1618.00
2023-03-11T04:47:53.013Z,1605.00
2023-03-11T04:48:53.063Z,1606.00
2023-03-11T04:49:53.132Z,1592.00
2023-03-11T04:50:53.144Z,1611.00
2023-03-11T04:51:53.191Z,1617.00
2023-03-11T04:52:53.274Z,1615.00
2023-03-11T04:53:53.318Z,1616.00
2023-03-11T04:54:53.393Z,1632.00
2023-03-11T04:55:53.405Z,1633.00
2023-03-11T04:56:53.417Z,1625.00
2023-03-11T04:57:53.505Z,1626.00
2023-03-11T04:58:53.538Z,1623.00
2023-03-11T04:59:53.632Z,1620.00
2023-03-11T05:00:53.680Z,1606.00
2023-03-11T05:01:53.761Z,1620.00
2023-03-11T05:02:53.815Z,1615.00
2023-03-11T05:03:53.813Z,1593.00
2023-03-11T05:04:53.893Z,1591.00
2023-03-11T05:05:53.890Z,1607.00
2023-03-11T05:06:53.973Z,1589.00
2023-03-11T05:07:54.022Z,1602.00
2023-03-11T05:08:54.050Z,1618.00
2023-03-11T05:09:54.083Z,1630.00
2023-03-11T05:10:54.149Z,1614.00
2023-03-11T05:11:54.296Z,1613.00
2023-03-11T05:12:54.227Z,1624.00
2023-03-11T05:13:54.264Z,1616.00
2023-03-11T05:14:54.342Z,1630.00
2023-03-11T05:15:54.512Z,1624.00
2023-03-11T05:16:55.058Z,1625.00
2023-03-11T05:17:54.475Z,1616.00
2023-03-11T05:18:54.534Z,1619.00
2023-03-11T05:19:54.544Z,1613.00
2023-03-11T05:20:54.616Z,1613.00
2023-03-11T05:21:54.624Z,1625.00
2023-03-11T05:22:54.697Z,1637.00
2023-03-11T05:23:54.734Z,1621.00
2023-03-11T05:24:54.811Z,1621.00
2023-03-11T05:25:54.866Z,1641.00
2023-03-11T05:26:54.919Z,1637.00
2023-03-11T05:27:54.965Z,1626.00
2023-03-11T05:28:55.001Z,1630.00
2023-03-11T05:29:55.083Z,1632.00
2023-03-11T05:30:55.154Z,1642.00
2023-03-11T05:31:55.179Z,1650.00
2023-03-11T05:32:55.248Z,1638.00
2023-03-11T05:33:55.276Z,1632.00
2023-03-11T05:34:55.323Z,1617.00
2023-03-11T05:35:55.441Z,1605.00
2023-03-11T05:36:55.394Z,1616.00
2023-03-11T05:37:55.480Z,1622.00
2023-03-11T05:38:55.524Z,1623.00
2023-03-11T05:39:55.581Z,1624.00
2023-03-11T05:40:55.612Z,1614.00
2023-03-11T05:41:55.637Z,1603.00
2023-03-11T05:42:55.689Z,1629.00
2023-03-11T05:43:55.732Z,1602.00
2023-03-11T05:44:55.768Z,1618.00
2023-03-11T05:45:55.805Z,1627.00
2023-03-11T05:46:55.932Z,1625.00
2023-03-11T05:47:55.859Z,1615.00
2023-03-11T05:48:55.964Z,1608.00
2023-03-11T05:49:56.016Z,1614.00
2023-03-11T05:50:56.057Z,1607.00
2023-03-11T05:51:58.547Z,1623.00
2023-03-11T05:52:56.105Z,1617.00
2023-03-11T05:53:56.142Z,1625.00
2023-03-11T05:54:56.148Z,1607.00
2023-03-11T05:55:56.166Z,1614.00
2023-03-11T05:56:56.206Z,1602.00
2023-03-11T05:57:56.283Z,1598.00
2023-03-11T05:58:56.273Z,1611.00
2023-03-11T05:59:56.237Z,1615.00
2023-03-11T06:00:56.290Z,1619.00
2023-03-11T06:01:56.295Z,1609.00
2023-03-11T06:02:56.337Z,1605.00
2023-03-11T06:03:56.420Z,1601.00
2023-03-11T06:04:56.474Z,1612.00
2023-03-11T06:05:56.431Z,1611.00
2023-03-11T06:06:56.372Z,1621.00
2023-03-11T06:07:56.432Z,1628.00
2023-03-11T06:08:56.445Z,1619.00
2023-03-11T06:09:56.477Z,1598.00
2023-03-11T06:10:56.499Z,1574.00
2023-03-11T06:11:56.510Z,1583.00
2023-03-11T06:12:56.534Z,1580.00
2023-03-11T06:13:56.557Z,1605.00
2023-03-11T06:14:56.589Z,1604.00
2023-03-11T06:15:56.644Z,1597.00
2023-03-11T06:16:56.646Z,1601.00
2023-03-11T06:17:56.655Z,1589.00
2023-03-11T06:18:56.667Z,1586.00
2023-03-11T06:19:56.673Z,1580.00
2023-03-11T06:20:56.698Z,1584.00
2023-03-11T06:21:56.704Z,1587.00
2023-03-11T06:22:56.747Z,1596.00
2023-03-11T06:23:56.761Z,1585.00
2023-03-11T06:24:56.780Z,1595.00
2023-03-11T06:25:56.807Z,1588.00
2023-03-11T06:26:56.825Z,1596.00
2023-03-11T06:27:56.845Z,1595.00
2023-03-11T06:28:56.876Z,1605.00
2023-03-11T06:29:56.892Z,1594.00
2023-03-11T06:30:56.898Z,1589.00
2023-03-11T06:31:56.992Z,1594.00
2023-03-11T06:32:57.097Z,1594.00
2023-03-11T06:33:56.952Z,1582.00
2023-03-11T06:34:56.980Z,1584.00
2023-03-11T06:35:57.042Z,1584.00
2023-03-11T06:36:57.050Z,1584.00
2023-03-11T06:37:57.077Z,1586.00
2023-03-11T06:38:57.058Z,1598.00
2023-03-11T06:39:57.075Z,1574.00
2023-03-11T06:40:57.108Z,1570.00
2023-03-11T06:41:57.129Z,1576.00
2023-03-11T06:42:57.198Z,1574.00
2023-03-11T06:43:57.190Z,1573.00
2023-03-11T06:44:57.201Z,1573.00
2023-03-11T06:45:57.252Z,1569.00
2023-03-11T06:46:57.287Z,1574.00
2023-03-11T06:47:57.279Z,1564.00
2023-03-11T06:48:57.312Z,1578.00
2023-03-11T06:49:57.336Z,1567.00
2023-03-11T06:50:57.359Z,1558.00
2023-03-11T06:51:57.407Z,1566.00
2023-03-11T06:52:57.399Z,1558.00
2023-03-11T06:53:57.419Z,1574.00
2023-03-11T06:54:57.441Z,1580.00
2023-03-11T06:55:57.446Z,1576.00
2023-03-11T06:56:57.499Z,1569.00
2023-03-11T06:57:57.506Z,1561.00
2023-03-11T06:58:57.631Z,1585.00
2023-03-11T06:59:57.570Z,1570.00
2023-03-11T07:00:57.581Z,1575.00
2023-03-11T07:01:57.628Z,1560.00
2023-03-11T07:02:57.614Z,1570.00
2023-03-11T07:03:57.705Z,1550.00
2023-03-11T07:04:57.643Z,1571.00
2023-03-11T07:05:57.705Z,1559.00
2023-03-11T07:06:57.687Z,1554.00
2023-03-11T07:07:57.780Z,1557.00
2023-03-11T07:08:57.744Z,1551.00
2023-03-11T07:09:57.755Z,1534.00
2023-03-11T07:10:57.803Z,1540.00
2023-03-11T07:11:57.793Z,1551.00
2023-03-11T07:12:57.802Z,1542.00
2023-03-11T07:13:57.849Z,1549.00
2023-03-11T07:14:57.855Z,1555.00
2023-03-11T07:15:57.864Z,1553.00
2023-03-11T07:16:58.042Z,1542.00
2023-03-11T07:17:57.893Z,1529.00
2023-03-11T07:18:57.901Z,1540.00
2023-03-11T07:19:57.992Z,1537.00
2023-03-11T07:20:57.983Z,1521.00
2023-03-11T07:21:57.975Z,1530.00
2023-03-11T07:22:58.016Z,1531.00
2023-03-11T07:23:58.011Z,1531.00
2023-03-11T07:24:58.114Z,1498.00
2023-03-11T07:25:58.113Z,1538.00
2023-03-11T07:26:58.098Z,1536.00
2023-03-11T07:27:58.165Z,1519.00
2023-03-11T07:28:58.160Z,1519.00
2023-03-11T07:29:58.175Z,1524.00
2023-03-11T07:30:58.201Z,1523.00
2023-03-11T07:31:59.194Z,1515.00
2023-03-11T07:32:58.276Z,1529.00
2023-03-11T07:33:58.271Z,1507.00
2023-03-11T07:34:58.271Z,1529.00
2023-03-11T07:35:58.352Z,1498.00
2023-03-11T07:36:58.318Z,1511.00
2023-03-11T07:37:58.399Z,1510.00
2023-03-11T07:38:58.350Z,1504.00
2023-03-11T07:39:58.416Z,1507.00
2023-03-11T07:40:58.408Z,1521.00
2023-03-11T07:41:58.406Z,1521.00
2023-03-11T07:42:58.443Z,1523.00
2023-03-11T07:43:58.459Z,1518.00
2023-03-11T07:44:58.479Z,1512.00
2023-03-11T07:45:58.663Z,1512.00
2023-03-11T07:46:58.500Z,1518.00
2023-03-11T07:47:58.548Z,1506.00
2023-03-11T07:48:58.538Z,1480.00
2023-03-11T07:49:58.612Z,1506.00
2023-03-11T07:50:58.593Z,1505.00
2023-03-11T07:51:58.620Z,1499.00
2023-03-11T07:52:58.661Z,1511.00
2023-03-11T07:53:58.698Z,1501.00
2023-03-11T07:54:58.752Z,1509.00
2023-03-11T07:55:58.778Z,1482.00
2023-03-11T07:56:58.847Z,1495.00
2023-03-11T07:57:58.878Z,1499.00
2023-03-11T07:58:58.916Z,1508.00
2023-03-11T07:59:58.955Z,1503.00
2023-03-11T08:00:58.993Z,1506.00
2023-03-11T08:01:59.082Z,1506.00
2023-03-11T08:02:59.110Z,1500.00
2023-03-11T08:03:59.133Z,1489.00
2023-03-11T08:04:59.158Z,1498.00
2023-03-11T08:05:59.188Z,1495.00
2023-03-11T08:06:59.207Z,1469.00
2023-03-11T08:07:59.237Z,1483.00
2023-03-11T08:08:59.271Z,1465.00
2023-03-11T08:09:59.324Z,1467.00
2023-03-11T08:10:59.342Z,1484.00
2023-03-11T08:11:59.403Z,1480.00
2023-03-11T08:12:59.453Z,1479.00
2023-03-11T08:13:59.451Z,1480.00
2023-03-11T08:14:59.452Z,1483.00
2023-03-11T08:15:59.608Z,1476.00
2023-03-11T08:16:59.569Z,1470.00
2023-03-11T08:17:59.620Z,1463.00
2023-03-11T08:18:59.619Z,1458.00
2023-03-11T08:19:59.690Z,1468.00
2023-03-11T08:20:59.719Z,1468.00
2023-03-11T08:21:59.786Z,1458.00
2023-03-11T08:22:59.845Z,1466.00
2023-03-11T08:23:59.882Z,1465.00
2023-03-11T08:24:59.903Z,1459.00
2023-03-11T08:25:59.945Z,1463.00
2023-03-11T08:26:59.994Z,1468.00
2023-03-11T08:29:00.089Z,1460.00
2023-03-11T08:43:00.644Z,1426.00
2023-03-11T08:44:00.695Z,1409.00
2023-03-11T08:45:00.731Z,1427.00
2023-03-11T08:46:00.830Z,1435.00
2023-03-11T08:47:00.824Z,1436.00
2023-03-11T08:48:00.875Z,1431.00
2023-03-11T08:49:01.434Z,1441.00
2023-03-11T08:50:00.929Z,1435.00
2023-03-11T08:51:00.997Z,1437.00
2023-03-11T08:52:01.077Z,1430.00
2023-03-11T08:53:01.137Z,1434.00
2023-03-11T08:54:01.161Z,1436.00
2023-03-11T08:55:01.212Z,1453.00
2023-03-11T08:57:01.309Z,1445.00
2023-03-11T08:58:01.406Z,1434.00
2023-03-11T08:59:01.440Z,1436.00
2023-03-11T09:00:01.445Z,1445.00
2023-03-11T09:01:01.523Z,1432.00
2023-03-11T09:02:01.538Z,1443.00
2023-03-11T09:03:01.652Z,1454.00
2023-03-11T09:04:01.662Z,1440.00
2023-03-11T09:05:01.700Z,1457.00
2023-03-11T09:06:01.883Z,1453.00
2023-03-11T09:07:01.817Z,1442.00
2023-03-11T09:08:03.337Z,1452.00
2023-03-11T09:09:01.921Z,1451.00
2023-03-11T09:10:02.034Z,1446.00
2023-03-11T09:11:02.039Z,1458.00
2023-03-11T09:12:02.070Z,1446.00
2023-03-11T09:13:02.133Z,1453.00
2023-03-11T09:14:02.151Z,1443.00
2023-03-11T09:15:02.203Z,1444.00
2023-03-11T09:16:02.306Z,1459.00
2023-03-11T09:17:02.315Z,1430.00
2023-03-11T09:18:02.363Z,1432.00
2023-03-11T09:19:02.395Z,1450.00
2023-03-11T09:20:02.448Z,1451.00
2023-03-11T09:21:02.491Z,1444.00
2023-03-11T09:22:02.533Z,1461.00
2023-03-11T09:23:02.636Z,1456.00
2023-03-11T09:24:02.647Z,1459.00
2023-03-11T09:25:02.716Z,1439.00
2023-03-11T09:26:02.739Z,1436.00
2023-03-11T09:27:02.773Z,1444.00
2023-03-11T09:28:02.916Z,1424.00
2023-03-11T09:29:02.930Z,1415.00
2023-03-11T09:30:02.973Z,1430.00
2023-03-11T09:31:03.034Z,1429.00
2023-03-11T09:32:03.027Z,1432.00
2023-03-11T09:33:03.079Z,1406.00
2023-03-11T09:34:03.128Z,1426.00
2023-03-11T09:35:03.154Z,1419.00
2023-03-11T09:36:03.254Z,1422.00
2023-03-11T09:37:03.269Z,1422.00
2023-03-11T09:38:03.313Z,1426.00
2023-03-11T09:39:03.383Z,1418.00
2023-03-11T09:40:03.402Z,1430.00
2023-03-11T09:41:03.449Z,1421.00
2023-03-11T09:42:03.545Z,1403.00
2023-03-11T09:43:03.572Z,1388.00
2023-03-11T09:44:03.615Z,1374.00
2023-03-11T09:45:03.639Z,1396.00
2023-03-11T09:46:03.706Z,1389.00
2023-03-11T09:47:03.848Z,1388.00
2023-03-11T09:48:03.881Z,1384.00
2023-03-11T09:49:03.910Z,1367.00
2023-03-11T09:50:03.984Z,1372.00
2023-03-11T09:51:04.024Z,1384.00
2023-03-11T09:52:04.079Z,1384.00
2023-03-11T09:53:04.138Z,1381.00
2023-03-11T09:54:04.222Z,1372.00
2023-03-11T09:55:04.354Z,1372.00
2023-03-11T09:56:04.331Z,1386.00
2023-03-11T09:57:04.416Z,1364.00
2023-03-11T09:58:04.446Z,1388.00
2023-03-11T09:59:04.484Z,1382.00
2023-03-11T10:00:04.577Z,1370.00
2023-03-11T10:01:04.601Z,1360.00
2023-03-11T10:02:04.760Z,1368.00
2023-03-11T10:03:04.799Z,1360.00
2023-03-11T10:04:04.810Z,1329.00
2023-03-11T10:05:04.832Z,1331.00
2023-03-11T10:06:04.940Z,1351.00
2023-03-11T10:07:04.961Z,1343.00
2023-03-11T10:08:05.037Z,1349.00
2023-03-11T10:09:05.103Z,1342.00
2023-03-11T10:10:05.171Z,1334.00
2023-03-11T10:11:05.174Z,1356.00
2023-03-11T10:12:05.231Z,1353.00
2023-03-11T10:13:05.307Z,1357.00
2023-03-11T10:14:05.377Z,1329.00
2023-03-11T10:15:05.439Z,1333.00
2023-03-11T10:16:05.489Z,1338.00
2023-03-11T10:17:05.543Z,1321.00
2023-03-11T10:18:05.584Z,1324.00
2023-03-11T10:19:05.650Z,1313.00
2023-03-11T10:20:05.711Z,1317.00
2023-03-11T10:21:05.736Z,1330.00
2023-03-11T10:22:05.820Z,1313.00
2023-03-11T10:23:05.855Z,1312.00
2023-03-11T10:24:05.930Z,1299.00
2023-03-11T10:25:05.973Z,1313.00
2023-03-11T10:26:06.004Z,1317.00
2023-03-11T10:27:06.026Z,1312.00
2023-03-11T10:28:06.061Z,1305.00
2023-03-11T10:29:06.105Z,1306.00
2023-03-11T10:30:06.221Z,1324.00
2023-03-11T10:31:06.211Z,1303.00
2023-03-11T10:32:06.300Z,1308.00
2023-03-11T10:33:06.338Z,1323.00
2023-03-11T10:34:06.332Z,1301.00
2023-03-11T10:35:06.401Z,1310.00
2023-03-11T10:36:06.476Z,1319.00
2023-03-11T10:37:06.514Z,1298.00
2023-03-11T10:38:06.546Z,1306.00
2023-03-11T10:39:06.615Z,1306.00
2023-03-11T10:40:06.669Z,1303.00
2023-03-11T10:41:06.677Z,1291.00
2023-03-11T10:42:06.729Z,1307.00
2023-03-11T10:43:06.762Z,1316.00
2023-03-11T10:44:06.820Z,1285.00
2023-03-11T10:45:06.840Z,1299.00
2023-03-11T10:46:06.902Z,1281.00
2023-03-11T10:47:06.877Z,1278.00
2023-03-11T10:48:06.957Z,1286.00
2023-03-11T10:49:07.026Z,1267.00
2023-03-11T10:50:07.059Z,1285.00
2023-03-11T10:51:07.122Z,1293.00
2023-03-11T10:52:07.151Z,1276.00
2023-03-11T10:53:07.182Z,1282.00
2023-03-11T10:54:07.295Z,1280.00
2023-03-11T10:55:07.330Z,1274.00
2023-03-11T10:56:07.385Z,1278.00
2023-03-11T10:57:07.412Z,1274.00
2023-03-11T10:58:07.476Z,1259.00
2023-03-11T10:59:07.522Z,1276.00
2023-03-11T11:00:07.588Z,1262.00
2023-03-11T11:01:07.650Z,1282.00
2023-03-11T11:02:07.668Z,1270.00
2023-03-11T11:03:07.755Z,1264.00
2023-03-11T11:04:07.855Z,1261.00
2023-03-11T11:05:07.886Z,1269.00
2023-03-11T11:06:07.944Z,1264.00
2023-03-11T11:07:07.985Z,1257.00
2023-03-11T11:08:08.044Z,1256.00
2023-03-11T11:09:08.089Z,1242.00
2023-03-11T11:10:08.170Z,1248.00
2023-03-11T11:11:08.213Z,1245.00
2023-03-11T11:12:08.267Z,1243.00
2023-03-11T11:13:08.309Z,1252.00
2023-03-11T11:14:08.387Z,1236.00
2023-03-11T11:15:08.422Z,1222.00
2023-03-11T11:16:08.466Z,1248.00
2023-03-11T11:17:08.506Z,1255.00
2023-03-11T11:18:08.589Z,1225.00
2023-03-11T11:19:08.636Z,1251.00
2023-03-11T11:20:08.658Z,1244.00
2023-03-11T11:21:08.708Z,1256.00
2023-03-11T11:22:08.782Z,1249.00
2023-03-11T11:23:08.835Z,1238.00
2023-03-11T11:24:08.868Z,1243.00
2023-03-11T11:25:09.027Z,1256.00
2023-03-11T11:26:09.146Z,1255.00
2023-03-11T11:27:09.074Z,1274.00
2023-03-11T11:28:09.110Z,1258.00
2023-03-11T11:29:09.478Z,1269.00
2023-03-11T11:30:09.195Z,1241.00
2023-03-11T11:31:09.259Z,1261.00
2023-03-11T11:32:09.306Z,1275.00
2023-03-11T11:33:09.349Z,1248.00
2023-03-11T11:34:09.411Z,1246.00
2023-03-11T11:35:09.478Z,1256.00
2023-03-11T11:36:09.501Z,1269.00
2023-03-11T11:37:09.533Z,1235.00
2023-03-11T11:38:09.643Z,1243.00
2023-03-11T11:39:10.231Z,1244.00
2023-03-11T11:40:11.276Z,1223.00
2023-03-11T11:41:09.746Z,1269.00
2023-03-11T11:42:09.766Z,1251.00
2023-03-11T11:43:09.818Z,1247.00
2023-03-11T11:44:09.886Z,1233.00
2023-03-11T11:45:10.040Z,1256.00
2023-03-11T11:46:10.014Z,1232.00
2023-03-11T11:47:10.045Z,1232.00
2023-03-11T11:48:10.053Z,1235.00
2023-03-11T11:49:10.103Z,1212.00
2023-03-11T11:50:10.134Z,1229.00
2023-03-11T11:51:10.186Z,1225.00
2023-03-11T11:52:10.245Z,1245.00
2023-03-11T11:53:10.302Z,1233.00
2023-03-11T11:54:10.358Z,1240.00
2023-03-11T11:55:10.402Z,1226.00
2023-03-11T11:56:10.491Z,1231.00
2023-03-11T11:57:10.518Z,1207.00
2023-03-11T11:58:10.560Z,1217.00
2023-03-11T11:59:10.602Z,1220.00
2023-03-11T12:00:10.671Z,1228.00
2023-03-11T12:01:10.733Z,1219.00
2023-03-11T12:02:10.762Z,1240.00
2023-03-11T12:03:10.835Z,1204.00
2023-03-11T12:04:10.879Z,1216.00
2023-03-11T12:05:11.036Z,1229.00
2023-03-11T12:06:11.011Z,1218.00
2023-03-11T12:07:11.054Z,1210.00
2023-03-11T12:08:11.081Z,1196.00
2023-03-11T12:09:11.179Z,1188.00
2023-03-11T12:10:22.189Z,1196.00
2023-03-11T12:11:12.222Z,1197.00
2023-03-11T12:12:11.207Z,1199.00
2023-03-11T12:13:11.562Z,1191.00
2023-03-11T12:14:11.256Z,1201.00
2023-03-11T12:15:11.296Z,1178.00
2023-03-11T12:16:11.374Z,1191.00
2023-03-11T12:17:11.345Z,1186.00
2023-03-11T12:18:11.395Z,1189.00
2023-03-11T12:19:11.403Z,1195.00
2023-03-11T12:20:11.410Z,1203.00
2023-03-11T12:21:11.414Z,1203.00
2023-03-11T12:22:11.407Z,1188.00
2023-03-11T12:23:11.428Z,1208.00
2023-03-11T12:24:11.453Z,1225.00
2023-03-11T12:25:11.465Z,1187.00
2023-03-11T12:26:11.491Z,1177.00
2023-03-11T12:27:11.563Z,1173.00
2023-03-11T12:28:11.620Z,1174.00
2023-03-11T12:29:13.787Z,1194.00